Aviation Digital Data Service (ADDS)

Output produced by METARs form (1015 UTC 04 December 2016)
found at http://aviationweather.gov/adds/metars/
 
KBTV 040537Z 0406/0506 33011KT P6SM VCSH OVC035 
     TEMPO 0406/0410 -SHSN BKN028 
     FM041000 33008KT P6SM OVC028 
     FM041600 33006KT P6SM BKN035 
     FM050100 00000KT P6SM BKN120